Time;durP1;ratioP1;P1;durP2;ratioP2;P2;SDS_P1;SDS_P2;PMS_P1;PMS_P2;Temp;Humidity;BMP_temperature;BMP_pressure;BME280_temperature;BME280_humidity;BME280_pressure;Samples;Min_cycle;Max_cycle;Signal;HPM_P1;HPM_P2
2024/03/21 00:01:58;;;;;;;0.50;0.50;;;11.40;99.90;;;;;;10493990;28;20567;-74
2024/03/21 00:07:04;;;;;;;0.60;0.60;;;11.40;99.90;;;;;;10483590;28;20219;-76
2024/03/21 00:12:09;;;;;;;0.60;0.60;;;11.40;99.90;;;;;;10491116;28;20193;-78
2024/03/21 00:17:11;;;;;;;0.50;0.50;;;11.30;99.90;;;;;;10492652;28;20224;-76
2024/03/21 00:22:13;;;;;;;0.60;0.60;;;11.30;99.90;;;;;;10491939;28;20207;-76
2024/03/21 00:27:17;;;;;;;0.60;0.60;;;11.30;99.90;;;;;;10487514;28;20217;-76
2024/03/21 00:32:20;;;;;;;0.60;0.60;;;11.20;99.90;;;;;;10492634;28;20550;-76
2024/03/21 00:37:22;;;;;;;0.50;0.50;;;11.20;99.90;;;;;;10491905;28;20232;-76
2024/03/21 00:42:26;;;;;;;0.70;0.70;;;11.20;99.90;;;;;;10492410;28;20685;-76
2024/03/21 00:47:28;;;;;;;0.50;0.50;;;11.20;99.90;;;;;;10490283;28;20642;-79
2024/03/21 00:52:31;;;;;;;0.50;0.50;;;11.20;99.90;;;;;;10491109;28;20250;-77
2024/03/21 00:57:34;;;;;;;0.50;0.50;;;11.20;99.90;;;;;;10490450;28;20228;-78
2024/03/21 01:02:37;;;;;;;0.60;0.60;;;11.20;99.90;;;;;;10491796;28;20666;-76
2024/03/21 01:07:39;;;;;;;0.60;0.60;;;11.10;99.90;;;;;;10490453;28;20216;-77
2024/03/21 01:12:44;;;;;;;0.60;0.60;;;11.10;99.90;;;;;;10491100;28;20193;-76
2024/03/21 01:17:47;;;;;;;0.50;0.50;;;11.10;99.90;;;;;;10490516;28;20709;-79
2024/03/21 01:22:49;;;;;;;0.60;0.60;;;11.10;99.90;;;;;;10491259;28;20586;-76
2024/03/21 01:27:54;;;;;;;0.50;0.50;;;11.10;99.90;;;;;;10490928;28;20209;-76
2024/03/21 01:32:57;;;;;;;0.50;0.50;;;11.10;99.90;;;;;;10448416;28;20205;-76
2024/03/21 01:37:59;;;;;;;0.50;0.50;;;11.10;99.90;;;;;;10467485;28;20690;-78
2024/03/21 01:43:04;;;;;;;0.50;0.50;;;11.10;99.90;;;;;;10490466;28;20258;-77
2024/03/21 01:48:06;;;;;;;0.53;0.53;;;11.10;99.90;;;;;;10490221;28;20224;-77
2024/03/21 01:53:09;;;;;;;0.60;0.60;;;11.00;99.90;;;;;;10490370;28;20196;-76
2024/03/21 01:58:12;;;;;;;0.50;0.50;;;11.00;99.90;;;;;;10487613;28;20224;-76
2024/03/21 02:03:15;;;;;;;0.50;0.50;;;11.00;99.90;;;;;;10483745;28;20271;-76
2024/03/21 02:08:18;;;;;;;0.60;0.60;;;11.00;99.90;;;;;;10495423;28;20239;-79
2024/03/21 02:13:21;;;;;;;0.50;0.50;;;11.00;99.90;;;;;;10498080;28;20223;-76
2024/03/21 02:18:24;;;;;;;0.60;0.60;;;11.00;99.90;;;;;;10497760;28;20224;-76
2024/03/21 02:23:27;;;;;;;0.50;0.50;;;11.00;99.90;;;;;;10497470;28;20615;-77
2024/03/21 02:28:30;;;;;;;0.50;0.50;;;11.00;99.90;;;;;;10495495;28;20219;-76
2024/03/21 02:33:32;;;;;;;0.60;0.60;;;11.00;99.90;;;;;;10497171;28;20200;-77
2024/03/21 02:38:36;;;;;;;0.60;0.60;;;11.10;99.90;;;;;;10495463;28;20228;-76
2024/03/21 02:43:38;;;;;;;0.60;0.60;;;11.20;99.90;;;;;;10491617;28;20651;-76
2024/03/21 02:48:40;;;;;;;0.60;0.60;;;11.20;99.90;;;;;;10478796;28;20633;-76
2024/03/21 02:53:44;;;;;;;0.70;0.70;;;11.30;99.90;;;;;;10496186;28;20578;-76
2024/03/21 02:58:46;;;;;;;0.83;0.83;;;11.40;99.90;;;;;;10494827;28;20213;-77
2024/03/21 03:03:49;;;;;;;0.97;0.97;;;11.40;99.90;;;;;;10495004;28;20205;-78
2024/03/21 03:08:52;;;;;;;0.90;0.90;;;11.50;99.90;;;;;;10495252;28;20225;-76
2024/03/21 03:13:55;;;;;;;0.90;0.90;;;11.60;99.90;;;;;;10495803;28;20539;-77
2024/03/21 03:18:57;;;;;;;0.73;0.73;;;11.70;99.90;;;;;;10494557;28;20281;-76
2024/03/21 03:24:01;;;;;;;0.90;0.90;;;11.70;99.90;;;;;;10495128;28;20192;-76
2024/03/21 03:29:03;;;;;;;0.80;0.80;;;11.80;99.90;;;;;;10494381;28;20270;-75
2024/03/21 03:39:28;;;;;;;0.70;0.70;;;11.90;99.90;;;;;;10494338;28;20216;-78
2024/03/21 03:44:31;;;;;;;0.80;0.80;;;12.00;99.90;;;;;;10492923;28;20739;-77
2024/03/21 03:49:33;;;;;;;1.10;1.10;;;12.00;99.90;;;;;;10494257;28;20197;-77
2024/03/21 03:54:37;;;;;;;0.80;0.80;;;12.00;99.90;;;;;;10488978;28;20221;-76
2024/03/21 03:59:39;;;;;;;0.70;0.70;;;12.00;99.90;;;;;;10492965;28;20693;-77
2024/03/21 04:04:41;;;;;;;0.70;0.70;;;12.00;99.90;;;;;;10492259;28;20330;-75
2024/03/21 04:09:45;;;;;;;0.30;0.30;;;11.90;99.90;;;;;;10493657;28;20681;-76
2024/03/21 04:14:51;;;;;;;0.87;0.87;;;12.00;99.90;;;;;;10493227;28;20221;-75
2024/03/21 04:19:54;;;;;;;0.90;0.90;;;11.90;99.90;;;;;;10492647;28;20225;-75
2024/03/21 04:24:57;;;;;;;0.90;0.90;;;12.00;99.90;;;;;;10492708;28;20220;-75
2024/03/21 04:30:00;;;;;;;1.20;1.20;;;12.00;99.90;;;;;;10490458;28;20609;-75
2024/03/21 04:35:02;;;;;;;1.10;1.10;;;12.00;99.90;;;;;;10492710;28;20638;-76
2024/03/21 04:40:07;;;;;;;0.70;0.70;;;11.90;99.90;;;;;;10493564;28;20216;-76
2024/03/21 04:45:10;;;;;;;0.90;0.90;;;11.90;99.90;;;;;;10491761;28;20216;-76
2024/03/21 04:50:12;;;;;;;1.10;1.10;;;11.90;99.90;;;;;;10491757;28;20254;-77
2024/03/21 04:55:16;;;;;;;1.00;1.00;;;11.90;99.90;;;;;;10490259;28;20212;-76
2024/03/21 05:00:18;;;;;;;0.80;0.80;;;11.90;99.90;;;;;;10486056;28;20232;-79
2024/03/21 05:05:21;;;;;;;1.07;1.07;;;11.90;99.90;;;;;;10490631;28;20242;-76
2024/03/21 05:10:24;;;;;;;0.80;0.80;;;11.90;99.90;;;;;;10491232;28;20209;-76
2024/03/21 05:15:27;;;;;;;0.73;0.73;;;11.80;99.90;;;;;;10491041;28;20274;-76
2024/03/21 05:20:29;;;;;;;0.90;0.90;;;11.90;99.90;;;;;;10491293;28;20555;-76
2024/03/21 05:25:35;;;;;;;0.90;0.90;;;11.80;99.90;;;;;;10490988;28;20271;-76
2024/03/21 05:30:37;;;;;;;1.10;1.10;;;11.90;99.90;;;;;;10491205;28;20285;-76
2024/03/21 05:35:40;;;;;;;0.50;0.50;;;11.90;99.90;;;;;;10484704;28;20213;-76
2024/03/21 05:40:44;;;;;;;1.00;1.00;;;11.90;99.90;;;;;;10489039;28;20229;-76
2024/03/21 05:45:46;;;;;;;0.50;0.50;;;11.90;99.90;;;;;;10498292;28;20220;-76
2024/03/21 05:50:48;;;;;;;0.70;0.70;;;11.90;99.90;;;;;;10498490;28;20562;-76
2024/03/21 05:55:57;;;;;;;0.70;0.70;;;11.90;99.90;;;;;;10498069;28;20216;-77
2024/03/21 06:01:08;;;;;;;0.70;0.70;;;11.90;99.90;;;;;;10498233;28;20220;-76
2024/03/21 06:06:11;;;;;;;0.90;0.90;;;12.00;99.90;;;;;;10492147;28;20481;-76
2024/03/21 06:11:14;;;;;;;0.60;0.60;;;12.00;99.90;;;;;;10492686;28;20230;-76
2024/03/21 06:16:17;;;;;;;0.70;0.70;;;12.10;99.90;;;;;;10494103;28;20217;-76
2024/03/21 06:21:19;;;;;;;0.80;0.80;;;12.10;99.90;;;;;;10491033;28;20224;-76
2024/03/21 06:26:23;;;;;;;0.50;0.50;;;12.20;99.90;;;;;;10496875;28;20241;-76
2024/03/21 06:31:25;;;;;;;0.70;0.70;;;12.30;99.90;;;;;;10497322;28;20199;-76
2024/03/21 06:36:27;;;;;;;0.50;0.50;;;12.40;99.90;;;;;;10496534;28;20601;-76
2024/03/21 06:41:31;;;;;;;0.73;0.73;;;12.50;99.90;;;;;;10496746;28;20243;-75
2024/03/21 06:46:38;;;;;;;0.60;0.60;;;12.60;99.90;;;;;;10496559;28;20218;-75
2024/03/21 06:51:40;;;;;;;0.70;0.70;;;12.60;99.90;;;;;;10494332;28;20626;-75
2024/03/21 06:56:44;;;;;;;0.37;0.37;;;12.70;99.90;;;;;;10494893;28;20224;-76
2024/03/21 07:01:46;;;;;;;0.70;0.70;;;12.80;99.90;;;;;;10494345;28;20208;-76
2024/03/21 07:06:48;;;;;;;0.70;0.70;;;13.00;99.90;;;;;;10492729;28;20224;-76
2024/03/21 07:11:52;;;;;;;0.73;0.73;;;13.10;99.90;;;;;;10495570;28;20196;-76
2024/03/21 07:16:55;;;;;;;0.80;0.80;;;13.20;99.90;;;;;;10495471;28;20220;-77
2024/03/21 07:21:57;;;;;;;0.70;0.70;;;13.20;99.90;;;;;;10495574;28;20220;-76
2024/03/21 07:27:01;;;;;;;0.80;0.80;;;13.20;99.90;;;;;;10494959;28;20224;-75
2024/03/21 07:32:05;;;;;;;0.90;0.90;;;13.20;99.90;;;;;;10494291;28;20199;-75
2024/03/21 07:37:08;;;;;;;0.80;0.80;;;13.20;99.90;;;;;;10494550;28;20712;-75
2024/03/21 07:42:11;;;;;;;0.70;0.70;;;13.30;99.90;;;;;;10494578;28;20273;-75
2024/03/21 07:47:14;;;;;;;0.80;0.80;;;13.50;99.90;;;;;;10493075;28;20583;-76
2024/03/21 07:52:16;;;;;;;0.70;0.70;;;13.60;99.90;;;;;;10494340;28;20673;-75
2024/03/21 07:57:20;;;;;;;0.80;0.80;;;13.80;99.90;;;;;;10493532;28;20209;-76
2024/03/21 08:02:22;;;;;;;1.00;1.00;;;13.80;99.90;;;;;;10493712;28;20247;-76
2024/03/21 08:07:24;;;;;;;0.50;0.50;;;14.00;99.90;;;;;;10484458;28;20612;-76
2024/03/21 08:12:28;;;;;;;0.50;0.50;;;14.10;99.90;;;;;;10490510;28;20204;-76
2024/03/21 08:17:30;;;;;;;0.63;0.63;;;14.30;99.90;;;;;;10490252;28;20221;-76
2024/03/21 08:22:33;;;;;;;0.70;0.70;;;14.40;99.90;;;;;;10489266;28;20212;-76
2024/03/21 08:27:36;;;;;;;0.70;0.70;;;14.40;99.90;;;;;;10489238;28;20213;-75
2024/03/21 08:32:39;;;;;;;0.40;0.40;;;14.50;99.90;;;;;;10489423;28;20207;-76
2024/03/21 08:37:41;;;;;;;0.50;0.50;;;14.80;99.90;;;;;;10489556;28;20223;-76
2024/03/21 08:42:46;;;;;;;0.50;0.50;;;14.90;99.90;;;;;;10483317;28;20220;-75
2024/03/21 08:47:48;;;;;;;0.50;0.50;;;14.90;99.90;;;;;;10482165;28;20254;-78
2024/03/21 08:52:50;;;;;;;0.50;0.50;;;15.00;99.90;;;;;;10486446;28;20670;-77
2024/03/21 08:57:54;;;;;;;0.40;0.40;;;15.00;99.90;;;;;;10487102;28;20221;-77
2024/03/21 09:02:56;;;;;;;0.50;0.50;;;15.00;99.90;;;;;;10488859;28;20982;-78
2024/03/21 09:07:59;;;;;;;0.60;0.60;;;15.00;99.90;;;;;;10487194;28;20717;-77
2024/03/21 09:13:02;;;;;;;0.60;0.60;;;14.90;99.90;;;;;;10489154;28;20192;-75
2024/03/21 09:18:05;;;;;;;0.50;0.50;;;15.00;99.90;;;;;;10487825;28;20627;-76
2024/03/21 09:23:07;;;;;;;0.60;0.60;;;15.20;99.90;;;;;;10491148;28;20224;-75
2024/03/21 09:28:11;;;;;;;0.40;0.40;;;15.40;99.90;;;;;;10474214;28;20632;-76
2024/03/21 09:33:14;;;;;;;0.50;0.50;;;15.70;99.90;;;;;;10489353;28;20208;-76
2024/03/21 09:38:16;;;;;;;0.20;0.20;;;16.00;99.90;;;;;;10485636;28;20219;-76
2024/03/21 09:43:20;;;;;;;0.60;0.60;;;16.40;99.90;;;;;;10488996;28;20199;-76
2024/03/21 09:48:22;;;;;;;0.50;0.50;;;16.70;99.90;;;;;;10488338;28;20277;-76
2024/03/21 09:53:25;;;;;;;0.40;0.40;;;16.90;99.80;;;;;;10488520;28;20799;-76
2024/03/21 09:58:29;;;;;;;0.50;0.50;;;16.90;99.40;;;;;;10487669;28;20217;-75
2024/03/21 10:03:31;;;;;;;0.50;0.50;;;16.90;99.60;;;;;;10488149;28;20208;-76
2024/03/21 10:08:34;;;;;;;0.50;0.50;;;17.00;98.90;;;;;;10488201;28;20635;-76
2024/03/21 10:13:41;;;;;;;0.50;0.50;;;17.00;98.60;;;;;;10487421;28;20246;-76
2024/03/21 10:18:43;;;;;;;0.50;0.50;;;16.90;98.60;;;;;;10489440;28;20225;-76
2024/03/21 10:23:46;;;;;;;0.60;0.60;;;16.60;98.40;;;;;;10487992;28;20204;-76
2024/03/21 10:28:50;;;;;;;0.50;0.50;;;16.60;98.70;;;;;;10490355;28;20209;-76
2024/03/21 10:33:54;;;;;;;0.50;0.50;;;16.60;98.40;;;;;;10494790;28;20204;-76
2024/03/21 10:38:58;;;;;;;0.60;0.60;;;16.50;98.80;;;;;;10492138;28;20310;-76
2024/03/21 10:44:04;;;;;;;0.50;0.50;;;16.30;98.80;;;;;;10490036;28;20570;-75
2024/03/21 10:49:07;;;;;;;0.50;0.50;;;16.30;98.40;;;;;;10491401;28;20231;-74
2024/03/21 10:54:15;;;;;;;0.50;0.50;;;16.20;98.60;;;;;;10493337;28;20204;-78
2024/03/21 10:59:23;;;;;;;0.53;0.53;;;16.10;98.70;;;;;;10493172;28;20231;-78
2024/03/21 11:04:35;;;;;;;0.40;0.40;;;16.00;98.80;;;;;;10476992;28;20207;-77
2024/03/21 11:09:37;;;;;;;0.30;0.30;;;16.00;98.70;;;;;;10485664;28;20200;-77
2024/03/21 11:14:43;;;;;;;0.60;0.60;;;16.00;98.40;;;;;;10492526;28;20203;-76
2024/03/21 11:19:45;;;;;;;0.40;0.40;;;15.90;98.60;;;;;;10491049;28;20587;-76
2024/03/21 11:24:48;;;;;;;0.40;0.40;;;15.90;98.80;;;;;;10495049;28;20246;-76
2024/03/21 11:29:51;;;;;;;0.50;0.50;;;15.90;98.20;;;;;;10494857;28;20258;-76
2024/03/21 11:34:54;;;;;;;0.40;0.40;;;15.90;98.60;;;;;;10495279;28;20216;-76
2024/03/21 11:39:56;;;;;;;0.40;0.40;;;16.00;98.70;;;;;;10493976;28;20220;-76
2024/03/21 11:45:00;;;;;;;0.50;0.50;;;16.10;99.00;;;;;;10493843;28;20274;-76
2024/03/21 11:50:04;;;;;;;0.50;0.50;;;16.30;98.80;;;;;;10492867;28;20622;-77
2024/03/21 11:55:08;;;;;;;0.40;0.40;;;16.50;98.90;;;;;;10494747;28;20754;-75
2024/03/21 12:00:13;;;;;;;0.50;0.50;;;16.50;98.70;;;;;;10491694;28;20217;-76
2024/03/21 12:05:15;;;;;;;0.43;0.43;;;16.50;98.20;;;;;;10491126;28;20223;-76
2024/03/21 12:10:18;;;;;;;0.50;0.50;;;16.40;98.40;;;;;;10493470;28;20731;-76
2024/03/21 12:15:22;;;;;;;0.40;0.40;;;16.40;98.20;;;;;;10493478;28;20223;-76
2024/03/21 12:20:24;;;;;;;0.50;0.50;;;16.50;98.50;;;;;;10493067;28;20224;-76
2024/03/21 12:25:27;;;;;;;0.40;0.40;;;16.60;98.10;;;;;;10490759;28;20220;-77
2024/03/21 12:30:31;;;;;;;0.50;0.50;;;16.60;98.30;;;;;;10492969;28;20201;-76
2024/03/21 12:35:34;;;;;;;0.50;0.50;;;16.60;98.60;;;;;;10492072;28;20227;-76
2024/03/21 12:40:37;;;;;;;0.30;0.30;;;16.70;98.60;;;;;;10490144;28;20232;-76
2024/03/21 12:45:41;;;;;;;0.40;0.40;;;16.60;98.50;;;;;;10491729;28;20251;-76
2024/03/21 12:50:43;;;;;;;0.50;0.50;;;16.70;98.40;;;;;;10491313;28;20185;-76
2024/03/21 12:55:46;;;;;;;0.50;0.50;;;16.80;98.50;;;;;;10491593;28;20290;-76
2024/03/21 13:00:49;;;;;;;0.50;0.50;;;17.00;98.40;;;;;;10490190;28;20266;-76
2024/03/21 13:05:52;;;;;;;0.40;0.40;;;17.10;97.90;;;;;;10489536;28;20597;-76
2024/03/21 13:10:54;;;;;;;0.50;0.50;;;17.20;98.10;;;;;;10491415;28;20685;-76
2024/03/21 13:15:58;;;;;;;0.40;0.40;;;17.20;98.30;;;;;;10461401;28;20231;-75
2024/03/21 13:21:00;;;;;;;0.50;0.50;;;17.30;98.30;;;;;;10491178;28;20697;-76
2024/03/21 13:26:03;;;;;;;0.40;0.40;;;17.30;97.90;;;;;;10490658;28;20224;-76
2024/03/21 13:31:07;;;;;;;0.40;0.40;;;17.30;97.20;;;;;;10491194;28;20189;-76
2024/03/21 13:36:09;;;;;;;0.50;0.50;;;17.10;96.50;;;;;;10490291;28;20227;-75
2024/03/21 13:41:11;;;;;;;0.40;0.40;;;16.90;96.60;;;;;;10489793;28;20258;-75
2024/03/21 13:46:15;;;;;;;0.50;0.50;;;16.80;96.60;;;;;;10489914;28;20220;-75
2024/03/21 13:51:18;;;;;;;0.47;0.47;;;16.80;97.10;;;;;;10489857;28;20189;-75
2024/03/21 13:56:20;;;;;;;0.47;0.47;;;16.80;97.40;;;;;;10490147;28;20646;-75
2024/03/21 14:01:26;;;;;;;0.40;0.40;;;16.80;97.40;;;;;;10491652;28;20277;-75
2024/03/21 14:06:29;;;;;;;0.40;0.40;;;16.80;97.60;;;;;;10498295;28;20643;-76
2024/03/21 14:11:31;;;;;;;0.40;0.40;;;16.80;97.80;;;;;;10481104;28;20199;-75
2024/03/21 14:16:35;;;;;;;0.50;0.50;;;16.70;97.90;;;;;;10497659;28;20243;-75
2024/03/21 14:21:37;;;;;;;0.40;0.40;;;16.70;98.20;;;;;;10498179;28;20220;-75
2024/03/21 14:26:39;;;;;;;0.50;0.50;;;16.60;98.10;;;;;;10497280;28;20239;-75
2024/03/21 14:31:43;;;;;;;0.50;0.50;;;16.80;98.10;;;;;;10496930;28;20197;-76
2024/03/21 14:36:45;;;;;;;0.63;0.63;;;16.90;97.40;;;;;;10496638;28;20763;-76
2024/03/21 14:41:51;;;;;;;0.60;0.60;;;16.90;97.50;;;;;;10497202;28;20243;-76
2024/03/21 14:46:55;;;;;;;0.60;0.60;;;16.90;97.00;;;;;;10479416;28;20602;-76
2024/03/21 14:51:57;;;;;;;0.63;0.63;;;17.00;97.10;;;;;;10483432;28;20204;-76
2024/03/21 14:56:59;;;;;;;0.50;0.50;;;17.10;97.00;;;;;;10491768;28;20250;-75
2024/03/21 15:02:03;;;;;;;0.50;0.50;;;17.10;96.40;;;;;;10493060;28;20224;-76
2024/03/21 15:07:05;;;;;;;0.50;0.50;;;17.10;96.50;;;;;;10492214;28;20235;-76
2024/03/21 15:12:10;;;;;;;0.53;0.53;;;17.10;95.40;;;;;;10493127;28;20262;-76
2024/03/21 15:17:13;;;;;;;0.60;0.60;;;17.00;95.20;;;;;;10492036;28;20228;-76
2024/03/21 15:22:16;;;;;;;0.50;0.50;;;16.90;94.30;;;;;;10492852;28;20228;-76
2024/03/21 15:27:18;;;;;;;0.60;0.60;;;16.90;94.10;;;;;;10491868;28;20220;-75
2024/03/21 15:32:22;;;;;;;0.60;0.60;;;16.80;93.90;;;;;;10493754;28;20196;-77
2024/03/21 15:37:24;;;;;;;0.57;0.57;;;16.70;93.40;;;;;;10492983;28;20246;-76
2024/03/21 15:42:27;;;;;;;0.67;0.67;;;16.60;93.90;;;;;;10490425;28;20575;-77
2024/03/21 15:47:30;;;;;;;0.30;0.30;;;16.50;94.70;;;;;;10484454;28;20273;-76
2024/03/21 15:52:33;;;;;;;0.60;0.60;;;16.50;94.70;;;;;;10492492;28;20189;-77
2024/03/21 15:57:35;;;;;;;0.50;0.50;;;16.40;94.40;;;;;;10492286;28;20220;-76
2024/03/21 16:02:39;;;;;;;0.63;0.63;;;16.40;95.00;;;;;;10492743;28;20269;-76
2024/03/21 16:07:42;;;;;;;0.50;0.50;;;16.30;95.20;;;;;;10491646;28;20273;-75
2024/03/21 16:12:45;;;;;;;0.47;0.47;;;16.30;95.00;;;;;;10474341;28;20200;-76
2024/03/21 16:17:49;;;;;;;0.50;0.50;;;16.20;94.80;;;;;;10491670;28;20697;-76
2024/03/21 16:22:52;;;;;;;0.50;0.50;;;16.10;94.50;;;;;;10488963;28;20216;-77
2024/03/21 16:27:54;;;;;;;0.50;0.50;;;16.00;94.70;;;;;;10490461;28;20220;-75
2024/03/21 16:32:58;;;;;;;0.50;0.50;;;15.90;94.90;;;;;;10489134;28;20211;-76
2024/03/21 16:38:02;;;;;;;0.50;0.50;;;15.80;95.20;;;;;;10486010;28;20220;-76
2024/03/21 16:43:06;;;;;;;0.50;0.50;;;15.70;95.20;;;;;;10488918;28;20228;-76
2024/03/21 16:48:11;;;;;;;0.50;0.50;;;15.70;95.60;;;;;;10487632;28;20216;-76
2024/03/21 16:53:13;;;;;;;0.50;0.50;;;15.60;95.50;;;;;;10483338;28;20274;-76
2024/03/21 16:58:16;;;;;;;0.60;0.60;;;15.50;96.40;;;;;;10489079;28;20224;-76
2024/03/21 17:03:20;;;;;;;0.70;0.70;;;15.40;97.00;;;;;;10489572;28;20697;-76
2024/03/21 17:08:22;;;;;;;0.70;0.70;;;15.30;96.50;;;;;;10489836;28;20289;-76
2024/03/21 17:13:25;;;;;;;0.50;0.50;;;15.30;96.50;;;;;;10489931;28;20196;-75
2024/03/21 17:18:29;;;;;;;0.60;0.60;;;15.20;97.00;;;;;;10480377;28;20228;-76
2024/03/21 17:23:31;;;;;;;0.60;0.60;;;15.10;98.20;;;;;;10490762;28;20224;-78
2024/03/21 17:28:36;;;;;;;0.40;0.40;;;15.00;98.50;;;;;;10490409;28;20223;-75
2024/03/21 17:33:39;;;;;;;0.60;0.60;;;14.90;98.80;;;;;;10488329;28;20208;-79
2024/03/21 17:38:42;;;;;;;0.50;0.50;;;14.80;98.70;;;;;;10470910;28;20225;-79
2024/03/21 17:43:45;;;;;;;0.60;0.60;;;14.70;99.10;;;;;;10487498;28;20224;-77
2024/03/21 17:48:49;;;;;;;0.73;0.73;;;14.60;99.30;;;;;;10489820;28;20859;-78
2024/03/21 17:53:53;;;;;;;0.47;0.47;;;14.50;99.70;;;;;;10486712;28;20208;-76
2024/03/21 17:58:56;;;;;;;0.40;0.40;;;14.50;99.10;;;;;;10489669;28;20751;-75
2024/03/21 18:03:59;;;;;;;0.50;0.50;;;14.40;98.10;;;;;;10459150;28;20721;-76
2024/03/21 18:09:02;;;;;;;0.30;0.30;;;14.40;97.90;;;;;;10484900;28;20262;-76
2024/03/21 18:14:04;;;;;;;0.57;0.57;;;14.30;97.80;;;;;;10485524;28;20197;-75
2024/03/21 18:19:08;;;;;;;0.60;0.60;;;14.20;97.90;;;;;;10487437;28;20227;-77
2024/03/21 18:24:10;;;;;;;0.33;0.33;;;14.20;97.70;;;;;;10488498;28;20224;-77
2024/03/21 18:29:13;;;;;;;0.70;0.70;;;14.00;97.70;;;;;;10487757;28;20282;-79
2024/03/21 18:34:16;;;;;;;0.60;0.60;;;13.90;98.00;;;;;;10487885;28;20204;-77
2024/03/21 18:39:19;;;;;;;0.40;0.40;;;13.80;98.10;;;;;;10487726;28;20220;-78
2024/03/21 18:44:21;;;;;;;0.60;0.60;;;13.70;98.30;;;;;;10487119;28;20243;-76
2024/03/21 18:49:25;;;;;;;0.33;0.33;;;13.70;98.50;;;;;;10484302;28;20621;-75
2024/03/21 18:54:29;;;;;;;0.60;0.60;;;13.50;98.60;;;;;;10492245;28;20224;-76
2024/03/21 18:59:32;;;;;;;0.60;0.60;;;13.50;98.70;;;;;;10492900;28;20257;-77
2024/03/21 19:04:35;;;;;;;0.50;0.50;;;13.40;98.70;;;;;;10494543;28;20221;-76
2024/03/21 19:09:38;;;;;;;0.60;0.60;;;13.40;99.00;;;;;;10492085;28;20258;-76
2024/03/21 19:14:40;;;;;;;0.50;0.50;;;13.30;99.10;;;;;;10492748;28;20212;-77
2024/03/21 19:19:44;;;;;;;0.10;0.10;;;13.20;99.20;;;;;;10490039;28;20197;-79
2024/03/21 19:24:46;;;;;;;0.50;0.50;;;13.20;99.30;;;;;;10489158;28;20228;-77
2024/03/21 19:29:49;;;;;;;0.60;0.60;;;13.20;99.40;;;;;;10481675;28;20861;-77
2024/03/21 19:34:53;;;;;;;0.70;0.70;;;13.10;99.50;;;;;;10489421;28;20216;-79
2024/03/21 19:39:56;;;;;;;0.60;0.60;;;13.10;99.50;;;;;;10489071;28;20200;-77
2024/03/21 19:45:01;;;;;;;0.50;0.50;;;13.00;99.50;;;;;;10474268;28;20235;-77
2024/03/21 19:50:05;;;;;;;0.50;0.50;;;13.00;99.60;;;;;;10478677;28;20631;-77
2024/03/21 19:55:09;;;;;;;0.60;0.60;;;13.00;99.60;;;;;;10487052;28;20221;-77
2024/03/21 20:00:13;;;;;;;0.60;0.60;;;13.00;99.70;;;;;;10482333;28;20645;-74
2024/03/21 20:05:16;;;;;;;0.60;0.60;;;13.00;99.70;;;;;;10486645;28;20232;-77
2024/03/21 20:10:19;;;;;;;0.70;0.70;;;13.00;99.70;;;;;;10486614;28;20696;-76
2024/03/21 20:15:21;;;;;;;0.70;0.70;;;13.00;99.80;;;;;;10481447;28;20693;-78
2024/03/21 20:20:25;;;;;;;0.80;0.80;;;13.00;99.60;;;;;;10484618;28;20285;-75
2024/03/21 20:25:30;;;;;;;0.60;0.60;;;13.00;99.70;;;;;;10491349;28;20643;-74
2024/03/21 20:30:38;;;;;;;0.60;0.60;;;13.00;99.60;;;;;;10490081;28;20197;-77
2024/03/21 20:35:41;;;;;;;0.70;0.70;;;12.90;99.70;;;;;;10490927;28;20224;-79
2024/03/21 20:40:53;;;;;;;0.60;0.60;;;12.90;99.80;;;;;;10488327;28;20724;-76
2024/03/21 20:45:56;;;;;;;0.70;0.70;;;12.90;99.80;;;;;;10480523;28;20736;-77
2024/03/21 20:51:04;;;;;;;0.60;0.60;;;12.90;99.90;;;;;;10486388;28;20201;-76
2024/03/21 20:56:07;;;;;;;0.70;0.70;;;12.90;99.90;;;;;;10485940;28;20231;-80
2024/03/21 21:01:11;;;;;;;0.63;0.63;;;12.90;99.90;;;;;;10485570;28;20248;-75
2024/03/21 21:06:16;;;;;;;0.60;0.60;;;12.90;99.90;;;;;;10487753;28;20262;-75
2024/03/21 21:11:21;;;;;;;0.80;0.80;;;12.80;99.90;;;;;;10488446;28;20192;-77
2024/03/21 21:16:23;;;;;;;0.80;0.80;;;12.80;99.90;;;;;;10488285;28;20212;-75
2024/03/21 21:21:28;;;;;;;0.60;0.60;;;12.80;99.90;;;;;;10489093;28;20199;-78
2024/03/21 21:26:31;;;;;;;0.60;0.60;;;12.70;99.90;;;;;;10487739;28;20223;-78
2024/03/21 21:31:33;;;;;;;0.70;0.70;;;12.70;99.90;;;;;;10481306;28;20204;-77
2024/03/21 21:36:37;;;;;;;0.70;0.70;;;12.70;99.90;;;;;;10487508;28;20224;-77
2024/03/21 21:41:39;;;;;;;0.90;0.90;;;12.70;99.90;;;;;;10469404;28;20684;-78
2024/03/21 21:46:42;;;;;;;0.70;0.70;;;12.70;99.90;;;;;;10484372;28;20723;-76
2024/03/21 21:51:46;;;;;;;0.70;0.70;;;12.70;99.90;;;;;;10486482;28;20200;-75
2024/03/21 21:56:48;;;;;;;0.60;0.60;;;12.80;99.90;;;;;;10487134;28;20223;-76
2024/03/21 22:01:50;;;;;;;0.70;0.70;;;12.80;99.90;;;;;;10488758;28;20549;-76
2024/03/21 22:06:54;;;;;;;0.70;0.70;;;12.70;99.90;;;;;;10481807;28;20399;-78
2024/03/21 22:11:56;;;;;;;0.50;0.50;;;12.80;99.90;;;;;;10480890;28;20266;-76
2024/03/21 22:16:59;;;;;;;0.60;0.60;;;12.80;99.90;;;;;;10486443;28;20217;-76
2024/03/21 22:22:02;;;;;;;0.80;0.80;;;12.80;99.90;;;;;;10488291;28;20212;-77
2024/03/21 22:27:05;;;;;;;0.70;0.70;;;12.80;99.90;;;;;;10492134;28;20237;-75
2024/03/21 22:32:07;;;;;;;0.50;0.50;;;12.80;99.90;;;;;;10496038;28;20209;-76
2024/03/21 22:37:11;;;;;;;0.50;0.50;;;12.80;99.90;;;;;;10495355;28;20217;-79
2024/03/21 22:42:13;;;;;;;0.60;0.60;;;12.70;99.90;;;;;;10495461;28;20204;-77
2024/03/21 22:47:16;;;;;;;0.60;0.60;;;12.70;99.90;;;;;;10489988;28;20689;-79
2024/03/21 22:52:19;;;;;;;0.50;0.50;;;12.70;99.90;;;;;;10494111;28;20196;-78
2024/03/21 22:57:22;;;;;;;0.50;0.50;;;12.60;99.90;;;;;;10490726;28;20274;-78
2024/03/21 23:02:24;;;;;;;0.40;0.40;;;12.50;99.90;;;;;;10494627;28;20216;-78
2024/03/21 23:07:28;;;;;;;0.60;0.60;;;12.40;99.90;;;;;;10490335;28;20749;-76
2024/03/21 23:12:31;;;;;;;0.60;0.60;;;12.30;99.90;;;;;;10491545;28;20201;-77
2024/03/21 23:17:33;;;;;;;0.60;0.60;;;12.20;99.90;;;;;;10482819;28;20236;-76
2024/03/21 23:22:37;;;;;;;0.60;0.60;;;12.20;99.90;;;;;;10492251;28;20567;-75
2024/03/21 23:27:40;;;;;;;0.57;0.57;;;12.10;99.90;;;;;;10493109;28;20650;-76
2024/03/21 23:32:42;;;;;;;0.50;0.50;;;12.10;99.90;;;;;;10493041;28;20196;-79
2024/03/21 23:37:46;;;;;;;0.60;0.60;;;12.00;99.90;;;;;;10491813;28;20219;-77
2024/03/21 23:42:48;;;;;;;0.60;0.60;;;11.80;99.90;;;;;;10492484;28;20254;-76
2024/03/21 23:47:50;;;;;;;0.70;0.70;;;11.70;99.90;;;;;;10493750;28;20224;-78
2024/03/21 23:52:54;;;;;;;0.60;0.60;;;11.60;99.90;;;;;;10493721;28;20457;-75
2024/03/21 23:57:57;;;;;;;0.50;0.50;;;11.50;99.90;;;;;;10487201;28;20721;-77
